createdAt,value
2024-03-25T00:00:06.951Z,7.118
2024-03-25T00:01:05.966Z,7.119
2024-03-25T00:02:06.740Z,7.079
2024-03-25T00:03:06.173Z,7.073
2024-03-25T00:04:05.580Z,7.106
2024-03-25T00:05:06.032Z,7.071
2024-03-25T00:06:05.592Z,7.067
2024-03-25T00:07:06.407Z,7.097
2024-03-25T00:08:06.097Z,7.085
2024-03-25T00:09:05.915Z,7.105
2024-03-25T00:10:06.676Z,7.102
2024-03-25T00:11:06.268Z,7.062
2024-03-25T00:12:05.644Z,7.084
2024-03-25T00:13:06.158Z,7.067
2024-03-25T00:14:05.730Z,7.061
2024-03-25T00:15:06.449Z,7.048
2024-03-25T00:16:06.116Z,7.028
2024-03-25T00:17:05.825Z,7.053
2024-03-25T00:18:06.229Z,7.093
2024-03-25T00:19:05.693Z,7.031
2024-03-25T00:20:06.167Z,7.073
2024-03-25T00:21:05.633Z,7.094
2024-03-25T00:22:05.938Z,7.073
2024-03-25T00:23:06.170Z,7.076
2024-03-25T00:24:05.551Z,7.105
2024-03-25T00:25:06.099Z,7.105
2024-03-25T00:26:05.546Z,7.096
2024-03-25T00:27:05.968Z,7.103
2024-03-25T00:28:06.248Z,7.065
2024-03-25T00:29:05.656Z,7.091
2024-03-25T00:30:06.212Z,7.096
2024-03-25T00:31:05.581Z,7.065
2024-03-25T00:32:06.110Z,7.070
2024-03-25T00:33:05.547Z,7.079
2024-03-25T00:34:05.858Z,7.099
2024-03-25T00:35:06.252Z,7.088
2024-03-25T00:36:05.587Z,7.063
2024-03-25T00:37:05.923Z,7.101
2024-03-25T00:38:06.244Z,7.101
2024-03-25T00:39:05.679Z,7.111
2024-03-25T00:40:06.038Z,7.118
2024-03-25T00:41:05.477Z,7.108
2024-03-25T00:42:05.888Z,7.088
2024-03-25T00:43:06.169Z,7.061
2024-03-25T00:44:05.495Z,7.094
2024-03-25T00:45:06.213Z,7.103
2024-03-25T00:46:05.613Z,7.058
2024-03-25T00:47:06.134Z,7.048
2024-03-25T00:48:05.530Z,7.043
2024-03-25T00:49:05.924Z,7.065
2024-03-25T00:50:06.298Z,7.038
2024-03-25T00:51:05.644Z,7.025
2024-03-25T00:52:06.069Z,7.001
2024-03-25T00:53:05.568Z,6.994
2024-03-25T00:54:05.793Z,6.980
2024-03-25T00:55:06.079Z,6.983
2024-03-25T00:56:05.428Z,6.971
2024-03-25T00:57:05.960Z,6.993
2024-03-25T00:58:06.173Z,7.054
2024-03-25T00:59:05.433Z,7.018
2024-03-25T01:00:06.803Z,6.988
2024-03-25T01:01:05.956Z,7.001
2024-03-25T01:02:06.749Z,7
2024-03-25T01:03:06.127Z,7.026
2024-03-25T01:04:05.493Z,7.006
2024-03-25T01:05:05.915Z,7.008
2024-03-25T01:06:06.325Z,6.981
2024-03-25T01:07:05.741Z,6.988
2024-03-25T01:08:06.070Z,6.993
2024-03-25T01:09:05.348Z,6.989
2024-03-25T01:10:05.957Z,6.998
2024-03-25T01:11:06.124Z,6.974
2024-03-25T01:12:05.484Z,6.973
2024-03-25T01:13:05.792Z,6.978
2024-03-25T01:14:06.086Z,6.948
2024-03-25T01:15:05.867Z,6.941
2024-03-25T01:16:06.150Z,6.909
2024-03-25T01:17:05.732Z,6.906
2024-03-25T01:18:06.210Z,6.934
2024-03-25T01:19:05.688Z,6.920
2024-03-25T01:20:06.127Z,6.898
2024-03-25T01:21:05.470Z,6.871
2024-03-25T01:22:05.840Z,6.878
2024-03-25T01:23:06.190Z,6.871
2024-03-25T01:24:05.606Z,6.883
2024-03-25T01:25:06.083Z,6.863
2024-03-25T01:26:05.342Z,6.851
2024-03-25T01:27:05.747Z,6.829
2024-03-25T01:28:06.117Z,6.803
2024-03-25T01:29:05.242Z,6.801
2024-03-25T01:30:06.013Z,6.809
2024-03-25T01:31:05.295Z,6.758
2024-03-25T01:32:05.795Z,6.756
2024-03-25T01:33:06.151Z,6.721
2024-03-25T01:34:05.349Z,6.723
2024-03-25T01:35:05.811Z,6.711
2024-03-25T01:36:06.149Z,6.695
2024-03-25T01:37:05.418Z,6.653
2024-03-25T01:38:06.046Z,6.663
2024-03-25T01:39:05.498Z,6.688
2024-03-25T01:40:05.838Z,6.641
2024-03-25T01:41:06.146Z,6.624
2024-03-25T01:42:05.409Z,6.619
2024-03-25T01:43:05.719Z,6.575
2024-03-25T01:44:06.054Z,6.559
2024-03-25T01:45:05.633Z,6.557
2024-03-25T01:46:05.983Z,6.538
2024-03-25T01:47:05.392Z,6.510
2024-03-25T01:48:05.851Z,6.487
2024-03-25T01:49:06.222Z,6.480
2024-03-25T01:50:05.766Z,6.476
2024-03-25T01:51:06.091Z,6.466
2024-03-25T01:52:05.464Z,6.471
2024-03-25T01:53:05.970Z,6.425
2024-03-25T01:54:05.378Z,6.396
2024-03-25T01:55:05.811Z,6.429
2024-03-25T01:56:06.054Z,6.413
2024-03-25T01:57:05.515Z,6.378
2024-03-25T01:58:05.735Z,6.391
2024-03-25T01:59:05.984Z,6.371
2024-03-25T02:00:06.396Z,6.380
2024-03-25T02:01:06.257Z,6.346
2024-03-25T02:02:05.776Z,6.286
2024-03-25T02:03:06.124Z,6.283
2024-03-25T02:04:05.376Z,6.280
2024-03-25T02:05:05.830Z,6.236
2024-03-25T02:06:06.184Z,6.238
2024-03-25T02:07:05.541Z,6.173
2024-03-25T02:08:05.814Z,6.176
2024-03-25T02:09:06.363Z,6.139
2024-03-25T02:10:05.855Z,6.133
2024-03-25T02:11:06.362Z,6.125
2024-03-25T02:12:05.685Z,6.086
2024-03-25T02:13:05.957Z,6.078
2024-03-25T02:14:06.253Z,6.070
2024-03-25T02:15:05.908Z,6.046
2024-03-25T02:16:06.382Z,6.038
2024-03-25T02:17:05.883Z,6.030
2024-03-25T02:18:06.279Z,5.996
2024-03-25T02:19:05.612Z,5.958
2024-03-25T02:20:06.206Z,5.956
2024-03-25T02:21:05.656Z,5.968
2024-03-25T02:22:06.025Z,5.961
2024-03-25T02:23:05.477Z,5.931
2024-03-25T02:24:05.785Z,5.928
2024-03-25T02:25:06.261Z,5.921
2024-03-25T02:26:05.750Z,5.896
2024-03-25T02:27:06.165Z,5.871
2024-03-25T02:28:05.464Z,5.798
2024-03-25T02:29:05.678Z,5.820
2024-03-25T02:30:06.527Z,5.791
2024-03-25T02:31:05.901Z,5.753
2024-03-25T02:32:06.459Z,5.744
2024-03-25T02:33:05.772Z,5.719
2024-03-25T02:34:06.126Z,5.736
2024-03-25T02:35:05.499Z,5.699
2024-03-25T02:36:05.864Z,5.711
2024-03-25T02:37:06.187Z,5.668
2024-03-25T02:38:05.447Z,5.698
2024-03-25T02:39:05.945Z,5.616
2024-03-25T02:40:06.252Z,5.633
2024-03-25T02:41:05.704Z,5.638
2024-03-25T02:42:06.015Z,5.591
2024-03-25T02:43:05.196Z,5.613
2024-03-25T02:44:05.531Z,5.576
2024-03-25T02:45:06.008Z,5.558
2024-03-25T02:46:05.409Z,5.546
2024-03-25T02:47:05.878Z,5.574
2024-03-25T02:48:06.256Z,5.563
2024-03-25T02:49:05.593Z,5.539
2024-03-25T02:50:06.045Z,5.545
2024-03-25T02:51:05.235Z,5.553
2024-03-25T02:52:05.568Z,5.525
2024-03-25T02:53:05.875Z,5.541
2024-03-25T02:54:06.052Z,5.505
2024-03-25T02:55:05.393Z,5.505
2024-03-25T02:56:05.639Z,5.474
2024-03-25T02:57:06.051Z,5.483
2024-03-25T02:58:05.407Z,5.486
2024-03-25T02:59:05.871Z,5.478
2024-03-25T03:00:07.249Z,5.425
2024-03-25T03:01:06.145Z,5.429
2024-03-25T03:02:05.748Z,5.435
2024-03-25T03:03:06.177Z,5.434
2024-03-25T03:04:05.507Z,5.423
2024-03-25T03:05:05.790Z,5.402
2024-03-25T03:06:06.206Z,5.401
2024-03-25T03:07:05.519Z,5.391
2024-03-25T03:08:05.863Z,5.354
2024-03-25T03:09:06.176Z,5.344
2024-03-25T03:10:05.483Z,5.375
2024-03-25T03:11:05.695Z,5.338
2024-03-25T03:12:06.183Z,5.331
2024-03-25T03:13:05.516Z,5.329
2024-03-25T03:14:05.806Z,5.308
2024-03-25T03:15:06.542Z,5.281
2024-03-25T03:16:05.937Z,5.265
2024-03-25T03:17:06.354Z,5.246
2024-03-25T03:18:05.672Z,5.219
2024-03-25T03:19:05.931Z,5.219
2024-03-25T03:20:06.388Z,5.186
2024-03-25T03:21:05.770Z,5.138
2024-03-25T03:22:06.072Z,5.108
2024-03-25T03:23:05.355Z,5.114
2024-03-25T03:24:05.729Z,5.118
2024-03-25T03:25:06.012Z,5.088
2024-03-25T03:26:05.381Z,5.103
2024-03-25T03:27:05.697Z,5.106
2024-03-25T03:28:06.113Z,5.083
2024-03-25T03:29:05.517Z,5.039
2024-03-25T03:30:06.090Z,5.010
2024-03-25T03:31:05.354Z,5.001
2024-03-25T03:32:05.875Z,4.965
2024-03-25T03:33:06.224Z,4.969
2024-03-25T03:34:05.546Z,4.946
2024-03-25T03:35:06.058Z,4.945
2024-03-25T03:36:05.410Z,4.943
2024-03-25T03:37:05.941Z,4.913
2024-03-25T03:38:06.303Z,4.925
2024-03-25T03:39:05.890Z,4.909
2024-03-25T03:40:06.252Z,4.898
2024-03-25T03:41:05.512Z,4.866
2024-03-25T03:42:05.971Z,4.861
2024-03-25T03:43:06.236Z,4.849
2024-03-25T03:44:05.554Z,4.840
2024-03-25T03:45:06.082Z,4.748
2024-03-25T03:46:05.434Z,4.733
2024-03-25T03:47:05.867Z,4.713
2024-03-25T03:48:06.162Z,4.684
2024-03-25T03:49:05.376Z,4.704
2024-03-25T03:50:05.707Z,4.706
2024-03-25T03:51:06.059Z,4.746
2024-03-25T03:52:05.405Z,4.724
2024-03-25T03:53:05.722Z,4.671
2024-03-25T03:54:06.194Z,4.646
2024-03-25T03:55:05.652Z,4.659
2024-03-25T03:56:06.063Z,4.613
2024-03-25T03:57:05.301Z,4.593
2024-03-25T03:58:05.586Z,4.578
2024-03-25T03:59:06.006Z,4.613
2024-03-25T04:00:06.300Z,4.545
2024-03-25T04:01:05.937Z,4.539
2024-03-25T04:02:06.564Z,4.576
2024-03-25T04:03:05.980Z,4.541
2024-03-25T04:04:05.329Z,4.599
2024-03-25T04:05:05.727Z,4.585
2024-03-25T04:06:06.022Z,4.556
2024-03-25T04:07:05.337Z,4.536
2024-03-25T04:08:05.813Z,4.566
2024-03-25T04:09:06.237Z,4.525
2024-03-25T04:10:05.649Z,4.489
2024-03-25T04:11:06.140Z,4.489
2024-03-25T04:12:05.643Z,4.521
2024-03-25T04:13:06.000Z,4.478
2024-03-25T04:14:05.305Z,4.476
2024-03-25T04:15:08.263Z,4.426
2024-03-25T04:16:05.580Z,4.401
2024-03-25T04:17:06.034Z,4.411
2024-03-25T04:18:05.320Z,4.385
2024-03-25T04:19:05.753Z,4.376
2024-03-25T04:20:06.247Z,4.338
2024-03-25T04:21:05.642Z,4.385
2024-03-25T04:22:05.913Z,4.353
2024-03-25T04:23:06.362Z,4.388
2024-03-25T04:24:05.808Z,4.375
2024-03-25T04:25:06.249Z,4.368
2024-03-25T04:26:05.647Z,4.366
2024-03-25T04:27:06.102Z,4.338
2024-03-25T04:28:05.626Z,4.316
2024-03-25T04:29:06.059Z,4.268
2024-03-25T04:30:05.740Z,4.269
2024-03-25T04:31:06.204Z,4.251
2024-03-25T04:32:05.699Z,4.245
2024-03-25T04:33:06.034Z,4.271
2024-03-25T04:34:05.475Z,4.288
2024-03-25T04:35:06.007Z,4.295
2024-03-25T04:36:05.365Z,4.256
2024-03-25T04:37:05.770Z,4.237
2024-03-25T04:38:06.278Z,4.263
2024-03-25T04:39:05.721Z,4.25
2024-03-25T04:40:06.080Z,4.258
2024-03-25T04:41:05.542Z,4.211
2024-03-25T04:42:05.916Z,4.181
2024-03-25T04:43:06.088Z,4.193
2024-03-25T04:44:05.547Z,4.181
2024-03-25T04:45:06.362Z,4.190
2024-03-25T04:46:05.729Z,4.203
2024-03-25T04:47:06.158Z,4.195
2024-03-25T04:48:05.486Z,4.175
2024-03-25T04:49:05.853Z,4.121
2024-03-25T04:50:06.261Z,4.106
2024-03-25T04:51:05.647Z,4.130
2024-03-25T04:52:06.042Z,4.146
2024-03-25T04:53:05.365Z,4.099
2024-03-25T04:54:05.773Z,4.091
2024-03-25T04:55:06.168Z,4.118
2024-03-25T04:56:05.572Z,4.101
2024-03-25T04:57:05.945Z,4.096
2024-03-25T04:58:06.179Z,4.085
2024-03-25T04:59:05.531Z,4.074
2024-03-25T05:00:07.046Z,4.058
2024-03-25T05:01:05.964Z,4.056
2024-03-25T05:02:05.546Z,4.053
2024-03-25T05:03:05.967Z,4.078
2024-03-25T05:04:06.344Z,4.093
2024-03-25T05:05:05.978Z,4.071
2024-03-25T05:06:05.328Z,4.054
2024-03-25T05:07:05.932Z,4.018
2024-03-25T05:08:06.279Z,4.019
2024-03-25T05:09:05.919Z,4.021
2024-03-25T05:10:07.560Z,4.026
2024-03-25T05:11:06.033Z,4.031
2024-03-25T05:12:05.475Z,3.998
2024-03-25T05:13:05.954Z,3.976
2024-03-25T05:14:06.347Z,3.993
2024-03-25T05:15:06.242Z,3.951
2024-03-25T05:16:05.650Z,3.974
2024-03-25T05:17:06.319Z,3.984
2024-03-25T05:18:05.848Z,3.990
2024-03-25T05:19:06.237Z,3.986
2024-03-25T05:20:05.775Z,3.998
2024-03-25T05:21:06.293Z,3.950
2024-03-25T05:22:05.640Z,3.926
2024-03-25T05:23:06.075Z,3.960
2024-03-25T05:24:05.592Z,3.933
2024-03-25T05:25:06.323Z,3.904
2024-03-25T05:26:05.953Z,3.839
2024-03-25T05:27:06.475Z,3.833
2024-03-25T05:28:05.865Z,3.815
2024-03-25T05:29:06.424Z,3.809
2024-03-25T05:30:10.893Z,3.738
2024-03-25T05:31:06.009Z,3.75
2024-03-25T05:32:05.485Z,3.741
2024-03-25T05:33:05.834Z,3.718
2024-03-25T05:34:06.300Z,3.698
2024-03-25T05:35:05.749Z,3.706
2024-03-25T05:36:06.083Z,3.691
2024-03-25T05:37:06.699Z,3.676
2024-03-25T05:38:06.314Z,3.683
2024-03-25T05:39:05.806Z,3.710
2024-03-25T05:40:06.438Z,3.671
2024-03-25T05:41:06.100Z,3.664
2024-03-25T05:42:05.584Z,3.656
2024-03-25T05:43:05.975Z,3.648
2024-03-25T05:44:05.429Z,3.701
2024-03-25T05:45:06.234Z,3.700
2024-03-25T05:46:05.734Z,3.651
2024-03-25T05:47:06.427Z,3.650
2024-03-25T05:48:06.955Z,3.638
2024-03-25T05:49:06.137Z,3.608
2024-03-25T05:50:05.652Z,3.658
2024-03-25T05:51:06.128Z,3.666
2024-03-25T05:52:05.722Z,3.656
2024-03-25T05:53:06.204Z,3.588
2024-03-25T05:54:05.566Z,3.616
2024-03-25T05:55:06.053Z,3.636
2024-03-25T05:56:05.503Z,3.611
2024-03-25T05:57:05.936Z,3.630
2024-03-25T05:58:06.476Z,3.666
2024-03-25T05:59:05.927Z,3.700
2024-03-25T06:00:07.320Z,3.721
2024-03-25T06:01:06.101Z,3.728
2024-03-25T06:02:05.775Z,3.741
2024-03-25T06:03:06.364Z,3.759
2024-03-25T06:04:05.782Z,3.763
2024-03-25T06:05:06.389Z,3.789
2024-03-25T06:06:05.892Z,3.815
2024-03-25T06:07:06.507Z,3.825
2024-03-25T06:08:06.137Z,3.871
2024-03-25T06:09:05.748Z,3.819
2024-03-25T06:10:06.377Z,3.829
2024-03-25T06:11:06.056Z,3.884
2024-03-25T06:12:05.772Z,3.926
2024-03-25T06:13:06.427Z,3.935
2024-03-25T06:14:05.780Z,3.956
2024-03-25T06:15:06.675Z,3.924
2024-03-25T06:16:05.994Z,3.941
2024-03-25T06:17:05.488Z,3.940
2024-03-25T06:18:05.886Z,4.021
2024-03-25T06:19:06.191Z,3.994
2024-03-25T06:20:05.494Z,4.004
2024-03-25T06:21:06.059Z,4.011
2024-03-25T06:22:05.400Z,4.065
2024-03-25T06:23:05.836Z,4.036
2024-03-25T06:24:06.280Z,4.033
2024-03-25T06:25:05.896Z,4.054
2024-03-25T06:26:06.477Z,4.019
2024-03-25T06:27:06.149Z,4.048
2024-03-25T06:28:05.517Z,4.056
2024-03-25T06:29:06.048Z,4.083
2024-03-25T06:30:05.973Z,4.116
2024-03-25T06:31:06.450Z,4.159
2024-03-25T06:32:06.356Z,4.196
2024-03-25T06:33:05.747Z,4.224
2024-03-25T06:34:06.219Z,4.218
2024-03-25T06:35:05.755Z,4.283
2024-03-25T06:36:06.152Z,4.306
2024-03-25T06:37:05.855Z,4.341
2024-03-25T06:38:06.329Z,4.393
2024-03-25T06:39:05.839Z,4.418
2024-03-25T06:40:06.279Z,4.426
2024-03-25T06:41:05.698Z,4.514
2024-03-25T06:42:06.159Z,4.550
2024-03-25T06:43:05.492Z,4.583
2024-03-25T06:44:05.987Z,4.598
2024-03-25T06:45:05.718Z,4.639
2024-03-25T06:46:06.039Z,4.670
2024-03-25T06:47:05.635Z,4.671
2024-03-25T06:48:06.130Z,4.698
2024-03-25T06:49:05.446Z,4.746
2024-03-25T06:50:06.076Z,4.783
2024-03-25T06:51:05.425Z,4.798
2024-03-25T06:52:05.932Z,4.826
2024-03-25T06:53:06.368Z,4.864
2024-03-25T06:54:05.840Z,4.848
2024-03-25T06:55:06.340Z,4.908
2024-03-25T06:56:05.878Z,4.958
2024-03-25T06:57:06.239Z,4.998
2024-03-25T06:58:05.693Z,5.005
2024-03-25T06:59:06.108Z,5.033
2024-03-25T07:00:07.085Z,5.041
2024-03-25T07:01:06.156Z,5.074
2024-03-25T07:02:05.853Z,5.101
2024-03-25T07:03:06.261Z,5.119
2024-03-25T07:04:05.823Z,5.143
2024-03-25T07:05:06.376Z,5.156
2024-03-25T07:06:05.859Z,5.175
2024-03-25T07:07:06.165Z,5.193
2024-03-25T07:08:05.565Z,5.231
2024-03-25T07:09:05.925Z,5.258
2024-03-25T07:10:06.396Z,5.308
2024-03-25T07:11:06.309Z,5.333
2024-03-25T07:12:05.929Z,5.378
2024-03-25T07:13:06.315Z,5.438
2024-03-25T07:14:05.720Z,5.491
2024-03-25T07:15:06.372Z,5.541
2024-03-25T07:16:05.846Z,5.551
2024-03-25T07:17:06.423Z,5.590
2024-03-25T07:18:05.743Z,5.636
2024-03-25T07:19:06.041Z,5.635
2024-03-25T07:20:05.637Z,5.646
2024-03-25T07:21:05.952Z,5.659
2024-03-25T07:22:06.350Z,5.681
2024-03-25T07:23:05.748Z,5.711
2024-03-25T07:24:06.277Z,5.724
2024-03-25T07:25:05.680Z,5.758
2024-03-25T07:26:06.146Z,5.755
2024-03-25T07:27:05.871Z,5.773
2024-03-25T07:28:06.301Z,5.786
2024-03-25T07:29:05.878Z,5.851
2024-03-25T07:30:06.658Z,5.893
2024-03-25T07:31:06.185Z,5.916
2024-03-25T07:32:05.816Z,5.898
2024-03-25T07:33:06.356Z,5.898
2024-03-25T07:34:05.853Z,5.909
2024-03-25T07:35:06.492Z,5.938
2024-03-25T07:36:06.174Z,5.967
2024-03-25T07:37:05.706Z,5.997
2024-03-25T07:38:06.487Z,6.026
2024-03-25T07:39:06.036Z,6.042
2024-03-25T07:40:05.496Z,6.096
2024-03-25T07:41:06.002Z,6.136
2024-03-25T07:42:05.566Z,6.161
2024-03-25T07:43:06.209Z,6.144
2024-03-25T07:44:05.684Z,6.156
2024-03-25T07:45:06.580Z,6.170
2024-03-25T07:46:06.142Z,6.186
2024-03-25T07:47:05.779Z,6.190
2024-03-25T07:48:06.239Z,6.190
2024-03-25T07:49:05.774Z,6.218
2024-03-25T07:50:06.485Z,6.258
2024-03-25T07:51:05.977Z,6.286
2024-03-25T07:52:05.487Z,6.284
2024-03-25T07:53:06.093Z,6.304
2024-03-25T07:54:05.778Z,6.288
2024-03-25T07:55:06.263Z,6.289
2024-03-25T07:56:05.953Z,6.318
2024-03-25T07:57:05.515Z,6.331
2024-03-25T07:58:06.126Z,6.371
2024-03-25T07:59:05.584Z,6.398
2024-03-25T08:00:07.030Z,6.418
2024-03-25T08:01:06.178Z,6.405
2024-03-25T08:02:05.971Z,6.426
2024-03-25T08:03:05.735Z,6.418
2024-03-25T08:04:06.370Z,6.429
2024-03-25T08:05:06.126Z,6.445
2024-03-25T08:06:06.144Z,6.494
2024-03-25T08:07:05.849Z,6.483
2024-03-25T08:08:06.380Z,6.474
2024-03-25T08:09:05.952Z,6.505
2024-03-25T08:10:06.564Z,6.516
2024-03-25T08:11:06.272Z,6.545
2024-03-25T08:12:05.796Z,6.565
2024-03-25T08:13:06.298Z,6.556
2024-03-25T08:14:06.012Z,6.568
2024-03-25T08:15:05.827Z,6.586
2024-03-25T08:16:06.543Z,6.618
2024-03-25T08:17:06.218Z,6.625
2024-03-25T08:18:05.959Z,6.646
2024-03-25T08:19:05.444Z,6.650
2024-03-25T08:20:06.120Z,6.658
2024-03-25T08:21:05.783Z,6.655
2024-03-25T08:22:06.237Z,6.666
2024-03-25T08:23:05.862Z,6.690
2024-03-25T08:24:06.263Z,6.666
2024-03-25T08:25:05.768Z,6.648
2024-03-25T08:26:06.061Z,6.668
2024-03-25T08:27:05.375Z,6.679
2024-03-25T08:28:05.803Z,6.704
2024-03-25T08:29:06.211Z,6.701
2024-03-25T08:30:06.290Z,6.698
2024-03-25T08:31:05.722Z,6.719
2024-03-25T08:32:06.380Z,6.736
2024-03-25T08:33:05.956Z,6.758
2024-03-25T08:34:05.572Z,6.798
2024-03-25T08:35:06.378Z,6.818
2024-03-25T08:36:06.172Z,6.823
2024-03-25T08:37:05.989Z,6.791
2024-03-25T08:38:05.668Z,6.795
2024-03-25T08:39:06.414Z,6.821
2024-03-25T08:40:06.034Z,6.821
2024-03-25T08:41:05.456Z,6.829
2024-03-25T08:42:06.334Z,6.841
2024-03-25T08:43:06.014Z,6.863
2024-03-25T08:44:05.623Z,6.871
2024-03-25T08:45:06.555Z,6.885
2024-03-25T08:46:06.220Z,6.903
2024-03-25T08:47:05.953Z,6.948
2024-03-25T08:48:06.647Z,6.941
2024-03-25T08:49:06.104Z,6.963
2024-03-25T08:50:05.712Z,6.985
2024-03-25T08:51:06.173Z,6.994
2024-03-25T08:52:05.768Z,7.030
2024-03-25T08:53:06.154Z,7.078
2024-03-25T08:54:05.679Z,7.090
2024-03-25T08:55:06.282Z,7.108
2024-03-25T08:56:05.987Z,7.136
2024-03-25T08:57:05.641Z,7.138
2024-03-25T08:58:06.302Z,7.159
2024-03-25T08:59:05.767Z,7.206
2024-03-25T09:00:07.355Z,7.248
2024-03-25T09:01:05.751Z,7.266
2024-03-25T09:02:07.487Z,7.269
2024-03-25T09:03:06.011Z,7.258
2024-03-25T09:04:13.652Z,7.261
2024-03-25T09:05:06.503Z,7.273
2024-03-25T09:06:06.310Z,7.286
2024-03-25T09:07:05.919Z,7.315
2024-03-25T09:08:06.504Z,7.346
2024-03-25T09:09:06.251Z,7.400
2024-03-25T09:10:05.851Z,7.434
2024-03-25T09:11:06.198Z,7.429
2024-03-25T09:12:05.718Z,7.433
2024-03-25T09:13:06.462Z,7.468
2024-03-25T09:14:06.129Z,7.489
2024-03-25T09:15:06.099Z,7.550
2024-03-25T09:16:05.562Z,7.573
2024-03-25T09:17:06.406Z,7.621
2024-03-25T09:18:05.887Z,7.625
2024-03-25T09:19:06.294Z,7.656
2024-03-25T09:20:05.831Z,7.641
2024-03-25T09:21:06.233Z,7.656
2024-03-25T09:22:05.595Z,7.693
2024-03-25T09:23:06.371Z,7.728
2024-03-25T09:24:05.809Z,7.763
2024-03-25T09:25:06.297Z,7.809
2024-03-25T09:26:05.731Z,7.829
2024-03-25T09:27:06.346Z,7.828
2024-03-25T09:28:06.017Z,7.821
2024-03-25T09:29:05.414Z,7.846
2024-03-25T09:30:06.335Z,7.881
2024-03-25T09:31:05.928Z,7.908
2024-03-25T09:32:06.488Z,7.911
2024-03-25T09:33:05.951Z,7.913
2024-03-25T09:34:05.515Z,7.934
2024-03-25T09:35:05.956Z,7.971
2024-03-25T09:36:06.761Z,8.003
2024-03-25T09:37:06.224Z,7.946
2024-03-25T09:38:05.784Z,7.946
2024-03-25T09:39:06.312Z,7.960
2024-03-25T09:40:05.867Z,7.994
2024-03-25T09:41:06.323Z,8.041
2024-03-25T09:42:05.934Z,8.071
2024-03-25T09:43:06.426Z,8.127
2024-03-25T09:44:06.054Z,8.186
2024-03-25T09:45:06.037Z,8.223
2024-03-25T09:46:05.373Z,8.204
2024-03-25T09:47:06.040Z,8.191
2024-03-25T09:48:05.497Z,8.192
2024-03-25T09:49:05.979Z,8.211
2024-03-25T09:50:05.630Z,8.229
2024-03-25T09:51:06.285Z,8.196
2024-03-25T09:52:06.032Z,8.198
2024-03-25T09:53:05.563Z,8.236
2024-03-25T09:54:06.098Z,8.284
2024-03-25T09:55:05.649Z,8.343
2024-03-25T09:56:06.237Z,8.380
2024-03-25T09:57:05.759Z,8.423
2024-03-25T09:58:06.371Z,8.449
2024-03-25T09:59:05.986Z,8.506
2024-03-25T10:00:06.366Z,8.569
2024-03-25T10:01:06.199Z,8.613
2024-03-25T10:02:05.822Z,8.654
2024-03-25T10:03:06.087Z,8.713
2024-03-25T10:04:05.535Z,8.743
2024-03-25T10:05:06.016Z,8.803
2024-03-25T10:06:05.459Z,8.801
2024-03-25T10:07:05.962Z,8.784
2024-03-25T10:08:06.396Z,8.784
2024-03-25T10:09:05.864Z,8.798
2024-03-25T10:10:06.347Z,8.843
2024-03-25T10:11:05.923Z,8.911
2024-03-25T10:12:06.321Z,8.946
2024-03-25T10:13:05.908Z,8.906
2024-03-25T10:14:06.220Z,8.914
2024-03-25T10:15:06.017Z,8.960
2024-03-25T10:16:05.631Z,9.016
2024-03-25T10:17:06.287Z,9.048
2024-03-25T10:18:05.879Z,9.043
2024-03-25T10:19:06.199Z,9.053
2024-03-25T10:20:05.885Z,9.074
2024-03-25T10:21:06.206Z,9.061
2024-03-25T10:22:05.718Z,9.029
2024-03-25T10:23:06.303Z,9.045
2024-03-25T10:24:05.811Z,9.071
2024-03-25T10:25:06.186Z,9.100
2024-03-25T10:26:05.835Z,9.156
2024-03-25T10:27:06.679Z,9.163
2024-03-25T10:28:06.092Z,9.203
2024-03-25T10:29:05.528Z,9.233
2024-03-25T10:30:06.366Z,9.263
2024-03-25T10:31:05.895Z,9.369
2024-03-25T10:32:06.606Z,9.348
2024-03-25T10:33:06.226Z,9.353
2024-03-25T10:34:05.644Z,9.395
2024-03-25T10:35:06.284Z,9.463
2024-03-25T10:36:05.908Z,9.481
2024-03-25T10:37:06.367Z,9.510
2024-03-25T10:38:05.836Z,9.526
2024-03-25T10:39:06.363Z,9.543
2024-03-25T10:40:06.080Z,9.524
2024-03-25T10:41:06.771Z,9.475
2024-03-25T10:42:06.158Z,9.503
2024-03-25T10:43:05.703Z,9.465
2024-03-25T10:44:06.143Z,9.470
2024-03-25T10:45:05.958Z,9.495
2024-03-25T10:46:06.360Z,9.520
2024-03-25T10:47:06.025Z,9.595
2024-03-25T10:48:05.502Z,9.643
2024-03-25T10:49:06.016Z,9.685
2024-03-25T10:50:05.684Z,9.653
2024-03-25T10:51:06.321Z,9.648
2024-03-25T10:52:05.760Z,9.614
2024-03-25T10:53:06.233Z,9.626
2024-03-25T10:54:05.757Z,9.718
2024-03-25T10:55:06.141Z,9.805
2024-03-25T10:56:05.709Z,9.841
2024-03-25T10:57:06.468Z,9.828
2024-03-25T10:58:06.025Z,9.803
2024-03-25T10:59:05.729Z,9.781
2024-03-25T11:00:07.589Z,9.773
2024-03-25T11:01:05.771Z,9.760
2024-03-25T11:02:05.630Z,9.765
2024-03-25T11:03:06.261Z,9.753
2024-03-25T11:04:05.636Z,9.814
2024-03-25T11:05:06.112Z,9.864
2024-03-25T11:06:05.687Z,9.931
2024-03-25T11:07:06.070Z,9.963
2024-03-25T11:08:05.802Z,10.08
2024-03-25T11:09:06.282Z,10.13
2024-03-25T11:10:06.098Z,10.18
2024-03-25T11:11:05.791Z,10.17
2024-03-25T11:12:06.212Z,10.18
2024-03-25T11:13:05.698Z,10.18
2024-03-25T11:14:06.162Z,10.18
2024-03-25T11:15:06.048Z,10.22
2024-03-25T11:16:05.847Z,10.26
2024-03-25T11:17:06.401Z,10.32
2024-03-25T11:18:05.831Z,10.36
2024-03-25T11:19:06.098Z,10.38
2024-03-25T11:20:05.766Z,10.39
2024-03-25T11:21:06.166Z,10.37
2024-03-25T11:22:05.654Z,10.37
2024-03-25T11:23:06.039Z,10.38
2024-03-25T11:24:05.607Z,10.35
2024-03-25T11:25:06.154Z,10.39
2024-03-25T11:26:05.580Z,10.48
2024-03-25T11:27:06.063Z,10.52
2024-03-25T11:28:05.573Z,10.46
2024-03-25T11:29:06.084Z,10.48
2024-03-25T11:30:06.101Z,10.55
2024-03-25T11:31:05.609Z,10.62
2024-03-25T11:32:06.193Z,10.64
2024-03-25T11:33:05.662Z,10.66
2024-03-25T11:34:06.066Z,10.68
2024-03-25T11:35:05.593Z,10.68
2024-03-25T11:36:06.121Z,10.72
2024-03-25T11:37:05.740Z,10.78
2024-03-25T11:38:06.138Z,10.82
2024-03-25T11:39:05.632Z,10.79
2024-03-25T11:40:06.546Z,10.84
2024-03-25T11:41:05.926Z,10.88
2024-03-25T11:42:06.524Z,10.92
2024-03-25T11:43:06.036Z,10.97
2024-03-25T11:44:05.747Z,10.91
2024-03-25T11:45:06.551Z,10.91
2024-03-25T11:46:05.880Z,10.96
2024-03-25T11:47:08.757Z,10.96
2024-03-25T11:48:06.368Z,10.89
2024-03-25T11:49:05.857Z,10.91
2024-03-25T11:50:06.289Z,10.95
2024-03-25T11:51:05.696Z,10.95
2024-03-25T11:52:06.126Z,10.92
2024-03-25T11:53:05.615Z,10.88
2024-03-25T11:54:06.168Z,10.89
2024-03-25T11:55:05.771Z,10.85
2024-03-25T11:56:06.200Z,10.84
2024-03-25T11:57:05.789Z,10.83
2024-03-25T11:58:06.251Z,10.83
2024-03-25T11:59:05.705Z,10.79
2024-03-25T12:00:07.483Z,10.78
2024-03-25T12:01:05.971Z,10.76
2024-03-25T12:02:05.851Z,10.81
2024-03-25T12:03:06.442Z,10.82
2024-03-25T12:04:05.868Z,10.82
2024-03-25T12:05:06.463Z,10.81
2024-03-25T12:06:05.875Z,10.78
2024-03-25T12:07:06.254Z,10.78
2024-03-25T12:08:05.711Z,10.78
2024-03-25T12:09:06.426Z,10.80
2024-03-25T12:10:06.070Z,10.81
2024-03-25T12:11:05.573Z,10.83
2024-03-25T12:12:06.253Z,10.84
2024-03-25T12:13:05.823Z,10.89
2024-03-25T12:14:06.488Z,10.89
2024-03-25T12:15:06.288Z,10.90
2024-03-25T12:16:05.721Z,10.91
2024-03-25T12:17:06.334Z,10.90
2024-03-25T12:18:05.749Z,10.88
2024-03-25T12:19:06.195Z,10.84
2024-03-25T12:20:05.736Z,10.84
2024-03-25T12:21:06.423Z,10.83
2024-03-25T12:22:05.894Z,10.81
2024-03-25T12:23:06.299Z,10.80
2024-03-25T12:24:05.808Z,10.79
2024-03-25T12:25:06.412Z,10.78
2024-03-25T12:26:05.907Z,10.80
2024-03-25T12:27:06.335Z,10.83
2024-03-25T12:28:05.851Z,10.85
2024-03-25T12:29:06.399Z,10.88
2024-03-25T12:30:06.489Z,10.88
2024-03-25T12:31:05.967Z,10.90
2024-03-25T12:32:06.680Z,10.93
2024-03-25T12:33:06.156Z,10.96
2024-03-25T12:34:05.705Z,11.00
2024-03-25T12:35:06.247Z,11.08
2024-03-25T12:36:05.982Z,11.04
2024-03-25T12:37:05.406Z,11.06
2024-03-25T12:38:07.281Z,11.08
2024-03-25T12:39:06.117Z,11.07
2024-03-25T12:40:05.761Z,11.08
2024-03-25T12:41:06.144Z,11.09
2024-03-25T12:42:05.777Z,11.09
2024-03-25T12:43:06.181Z,11.11
2024-03-25T12:44:05.777Z,11.12
2024-03-25T12:45:06.531Z,11.13
2024-03-25T12:46:06.030Z,11.14
2024-03-25T12:47:07.468Z,11.15
2024-03-25T12:48:06.008Z,11.21
2024-03-25T12:49:05.476Z,11.26
2024-03-25T12:50:05.980Z,11.36
2024-03-25T12:51:05.303Z,11.32
2024-03-25T12:52:05.720Z,11.30